Cytokinetics Inc (NASDAQ:CYTK)

CAPS Rating: 3 out of 5

A biopharmaceutical company, focused on developing small molecule therapeutics for the treatment of cardiovascular diseases and cancer.

Results 1 - 99 of 197 : 1 2 Next »
Top
Pick
Member Name Member
Rating
Start
Date
Call Time
Frame
Start
Price
Stock
Gain
Index
Gain
Score Commentary
This player feels very strongly about this pick and has marked it a Top Pick. Top Picks do not affect a player’s score. pchop123 78.31 4/16/2014 Outperform 5Y $8.90 +6.96% +0.44% +6.52 1 Comment
portefeuille 99.56 4/16/2014 Outperform 5Y $8.95 +6.37% +0.50% +5.87 0 Comment
TerryFool 21.60 4/15/2014 Outperform 5Y $8.94 +6.49% +2.34% +4.14 1 Comment
TerryHoodSr 49.09 4/15/2014 Outperform 5Y $8.94 +6.49% +1.70% +4.79 1 Comment
alkusari 75.75 4/15/2014 Underperform 5Y $9.47 +0.53% +1.67% +1.15 0 Comment
hayrettin 69.80 4/9/2014 Outperform 5Y $9.69 -1.75% -0.22% -1.53 0 Comment
msb09 42.95 4/2/2014 Outperform 3M $9.79 -2.76% -1.12% -1.64 0 Comment
Haugurafpeningum 81.72 3/31/2014 Outperform 5Y $9.20 +3.48% -0.14% +3.62 0 Comment
IVolStrategy 23.60 3/26/2014 Outperform 1Y $9.02 +5.54% -0.34% +5.89 0 Comment
BioForcePicks1 69.71 3/25/2014 Outperform 3M $8.94 +6.49% +0.13% +6.35 0 Comment
InTheTrenches 82.09 3/24/2014 Outperform 1Y $8.72 +9.17% +0.49% +8.69 0 Comment
billator 99.59 3/12/2014 Outperform 5Y $10.19 -6.58% -0.16% -6.42 0 Comment
Dmaral < 20 2/27/2014 Outperform 5Y $10.31 -7.66% +0.60% -8.26 0 Comment
PATRICIOTOMAS < 20 2/20/2014 Outperform 3W $8.98 +6.07% +1.56% +4.51 0 Comment
car990le 54.52 1/21/2014 Outperform 5Y $8.91 +6.85% +0.91% +5.93 0 Comment
Plasmidologist 84.06 1/16/2014 Outperform 5Y $9.27 +2.69% +1.32% +1.37 0 Comment
This player feels very strongly about this pick and has marked it a Top Pick. Top Picks do not affect a player’s score. s2dbaker 90.96 1/10/2014 Outperform 5Y $9.22 +3.25% +1.50% +1.75 1 Comment
flypower 98.39 1/7/2014 Outperform 5Y $7.30 +30.41% +1.80% +28.61 0 Comment
HoosierDoozer < 20 12/23/2013 Outperform 5Y $6.60 +44.24% +2.11% +42.14 0 Comment
grahamfordummies 62.11 8/8/2013 12/4/2013 Outperform 3Y $10.21 -6.76% +9.65% -16.41 1 Comment
SkepBioInvestor 88.92 12/2/2013 Outperform 1Y $6.52 +46.01% +2.93% +43.09 1 Comment
cavemantrader 83.30 11/7/2013 Outperform 5Y $6.33 +50.39% +6.52% +43.87 0 Comment
willyRD 72.85 10/9/2013 Outperform 1Y $6.65 +43.16% +12.42% +30.74 0 Comment
mandynshane < 20 10/8/2013 Outperform NS $6.69 +42.30% +11.77% +30.54 0 Comment
ImFive 52.08 10/7/2013 Outperform 5Y $7.03 +35.42% +11.33% +24.09 0 Comment
ralonsot < 20 10/2/2013 Outperform 5Y $7.38 +29.00% +10.41% +18.59 0 Comment
withoutDoubt 37.47 9/5/2013 Outperform 5Y $8.32 +14.35% +12.20% +2.15 0 Comment
fatmoneyrz 94.03 9/3/2013 Outperform 5Y $7.79 +22.21% +12.77% +9.44 0 Comment
KidJones 98.35 9/3/2013 Outperform 5Y $8.62 +10.44% +12.81% -2.37 0 Comment
maximstrelzow 98.96 8/30/2013 Outperform NS $10.81 -11.93% +13.30% -25.23 0 Comment
anchak 99.86 8/29/2013 Outperform NS $10.81 -11.97% +13.29% -25.26 0 Comment
Greeniesnack 56.55 8/23/2013 Outperform 5Y $11.11 -14.31% +11.91% -26.22 0 Comment
sublimeinvestor 40.65 8/22/2013 Outperform 5Y $11.03 -13.73% +12.17% -25.90 0 Comment
FoolPep 42.36 8/22/2013 Outperform 3M $11.60 -17.93% +13.03% -30.96 0 Comment
icebox40 81.03 8/20/2013 Outperform 3W $10.34 -7.93% +12.26% -20.19 0 Comment
zzlangerhans 99.73 8/20/2013 Outperform 1Y $10.25 -7.12% +12.29% -19.41 1 Comment
SCOTTRHUETTLCPA 58.82 8/19/2013 Underperform 3W $10.18 -6.48% +12.84% +19.32 0 Comment
rknapton < 20 8/7/2013 Underperform 5Y $10.55 -9.76% +10.17% +19.93 1 Comment
ababrmon 89.40 7/31/2013 Outperform 3M $12.47 -23.66% +10.50% -34.16 0 Comment
efarev 99.11 2/4/2011 7/26/2013 Outperform 5Y $11.16 -14.70% +42.43% -57.13 0 Comment
PharmTeam 61.17 7/19/2013 Outperform 3Y $13.43 -29.11% +10.60% -39.72 1 Comment
ronmcpeek < 20 7/19/2013 Outperform 5Y $13.43 -29.11% +10.60% -39.72 0 Comment
PAGEBOY73 97.56 7/15/2013 Underperform 1Y $13.51 -29.53% +10.81% +40.35 0 Comment
TMFEZMagic 69.71 7/15/2013 Underperform 5Y $13.76 -30.81% +11.00% +41.81 0 Comment
ghghgfgfnjkkhuyt 38.00 7/12/2013 Outperform 1Y $13.60 -30.00% +11.28% -41.28 0 Comment
kaletbaldrich27 < 20 7/10/2013 Outperform 1Y $13.30 -28.42% +13.10% -41.52 1 Comment
WalkingCaptain 99.07 7/1/2013 Outperform 5Y $12.49 -23.77% +15.51% -39.28 0 Comment
Jsams82 < 20 7/1/2013 Outperform 1Y $11.58 -17.79% +15.58% -33.37 0 Comment
OriginalBarnacle 65.87 7/1/2013 Underperform 1Y $11.58 -17.79% +15.58% +33.37 0 Comment
JJ68 < 20 6/26/2013 Outperform 5Y $12.10 -21.35% +16.79% -38.14 0 Comment
ytryan 73.00 6/19/2013 Outperform 5Y $11.28 -15.61% +13.19% -28.80 0 Comment
Scraming < 20 6/19/2013 Outperform 3M $11.58 -17.79% +12.60% -30.39 0 Comment
saab93boi < 20 6/18/2013 Underperform 5Y $11.10 -14.23% +12.35% +26.59 0 Comment
shonny2 < 20 5/22/2013 Outperform 5Y $6.90 +37.98% +11.17% +26.81 0 Comment
OttoBismarck 99.89 5/10/2013 Underperform 5Y $6.42 +48.29% +14.36% -33.93 0 Comment
ava5147 41.50 2/19/2013 Outperform 1Y $6.24 +52.56% +22.33% +30.24 0 Comment
mcdbenbe 81.52 2/19/2013 Outperform 5Y $6.24 +52.56% +22.33% +30.24 0 Comment
montys3 59.07 1/22/2013 Outperform 5Y $5.99 +59.03% +25.23% +33.81 0 Comment
Spyrig < 20 12/17/2012 Outperform 5Y $4.02 +136.82% +30.83% +105.99 0 Comment
mdrnsamurai < 20 12/12/2012 Outperform 5Y $4.29 +121.91% +29.44% +92.47 0 Comment
jack0071 77.95 11/27/2012 Outperform 3Y $4.20 +126.67% +32.28% +94.39 0 Comment
cthomas1017 77.02 11/23/2012 Underperform 5Y $3.93 +142.24% +31.86% -110.38 0 Comment
danculbertson 79.57 10/15/2012 Outperform 3M $4.41 +115.87% +29.73% +86.14 0 Comment
millerto 48.17 8/31/2012 Outperform 1Y $4.58 +107.98% +32.25% +75.73 0 Comment
IdahoInvestor 29.18 8/8/2012 Underperform 5Y $4.00 +137.95% +32.65% -105.30 0 Comment
iadops40 32.45 7/13/2012 Outperform 1Y $4.02 +136.82% +39.24% +97.57 0 Comment
THERULERGOD < 20 7/11/2012 Outperform 5Y $4.26 +123.47% +38.88% +84.59 0 Comment
greentah 63.51 7/9/2012 Outperform 5Y $4.32 +120.37% +37.68% +82.69 0 Comment
HongHue < 20 7/6/2012 Outperform 1Y $3.90 +144.10% +37.59% +106.51 0 Comment
Harlequinvestor 45.91 6/18/2012 Outperform 1Y $5.16 +84.50% +39.53% +44.96 0 Comment
ConradMike55 < 20 5/10/2012 Outperform 3W $5.58 +70.61% +36.37% +34.24 0 Comment
Arsenal1860 < 20 5/10/2012 Outperform 5Y $5.58 +70.61% +36.37% +34.24 0 Comment
MythQuinn 95.09 5/8/2012 Outperform 3Y $5.52 +72.46% +36.53% +35.93 0 Comment
stainsolution 71.46 5/8/2012 Outperform 5Y $5.70 +67.02% +36.77% +30.25 0 Comment
foolbull12 < 20 5/8/2012 Outperform 5Y $5.52 +72.46% +36.92% +35.54 0 Comment
RBuskey106 63.41 3/15/2012 Outperform 5Y $7.14 +33.33% +32.60% +0.74 1 Comment
TechSci 26.65 3/6/2012 Outperform 5Y $6.54 +45.57% +38.12% +7.45 0 Comment
ReaperKK < 20 2/13/2012 Outperform 1Y $7.08 +34.46% +38.12% -3.65 1 Comment
mhy729 34.10 2/17/2011 2/13/2012 Outperform 1Y $9.18 +3.73% +39.41% -35.68 0 Comment
drt2202 < 20 12/29/2011 Outperform 5Y $5.94 +60.27% +48.83% +11.44 0 Comment
CaptainVegetable < 20 8/5/2011 Outperform 5Y $7.14 +33.33% +53.29% -19.96 0 Comment
pobeda79 31.58 6/20/2011 Outperform 5Y $6.90 +37.97% +47.20% -9.23 0 Comment
amsteinberg86 < 20 5/31/2011 Outperform 3Y $8.64 +10.19% +38.30% -28.12 0 Comment
codyjr002 98.59 5/27/2011 Outperform 5Y $8.64 +10.19% +39.62% -29.43 0 Comment
Thleter 68.65 5/24/2011 Outperform 1Y $8.10 +17.53% +41.24% -23.71 1 Comment
ag77840 21.50 5/18/2011 Outperform 5Y $8.61 +10.57% +38.91% -28.34 0 Comment
Doggity 71.03 5/17/2011 Outperform 5Y $8.64 +10.19% +40.47% -30.29 0 Comment
Euro247 68.62 5/13/2011 Outperform 5Y $8.79 +8.30% +39.23% -30.93 0 Comment
inouye 49.10 5/3/2011 Outperform 1Y $8.52 +11.74% +37.50% -25.76 0 Comment
NVTreasureHunter 29.26 4/27/2011 Outperform NS $9.00 +5.78% +38.02% -32.24 0 Comment
Squeege1981 80.38 4/18/2011 Outperform 5Y $8.64 +10.19% +42.73% -32.54 0 Comment
reachmygoals1 < 20 4/11/2011 Outperform 3M $8.94 +6.49% +40.14% -33.66 0 Comment
limeonaire 97.83 4/4/2011 Outperform 5Y $9.00 +5.78% +39.69% -33.91 0 Comment
ajhers2 < 20 3/25/2011 Outperform 5Y $8.46 +12.53% +41.38% -28.85 0 Comment
lombardy 77.83 3/22/2011 Outperform 5Y $7.62 +24.93% +43.69% -18.75 0 Comment
binyalazar < 20 3/10/2011 Outperform 5Y $8.99 +5.85% +42.74% -36.89 0 Comment
WorldOnFire 28.60 2/23/2011 Outperform 3W $8.70 +9.43% +41.47% -32.05 0 Comment
HackInvestor < 20 2/22/2011 Outperform 5Y $9.12 +4.39% +40.02% -35.63 0 Comment
cheaply 22.66 2/10/2011 Outperform 1Y $11.16 -14.69% +41.63% -56.32 1 Comment
Results 1 - 99 of 197 : 1 2 Next »

Featured Broker Partners


Advertisement